Vb La Graciosa — EA5408 — position and weather

sailwx.info

Track history (hours):
 
Tides and Currents Weather Stations Pressure Air Temp Water Temp Dewpoint Dewpoint Depression Visibility Wind Speed Wind Dir Waves Ship Positions

Vb La Graciosa

Last reported at 2018-Apr-23 01:29 UTC. Time now 2018-Apr-23 05:35 UTC.
Position N 28°09' W 015°25'.

Length 22 m.

Type: Ship. MMSI: 225983994.

Date/timePositionNaut miles runAvg speedWind from/ knotsBaromVisibWave heightAir tempDewpointWater temp
2018-Apr-23 01:29N 28°09' W 015°25'4 7.8
2018-Apr-23 01:00N 28°05' W 015°24'2 3.9
2018-Apr-23 00:30N 28°07' W 015°25'2 0.4
2018-Apr-22 20:01N 28°09' W 015°25'0 0.0
2018-Apr-22 20:00N 28°09' W 015°25'2 3.2
2018-Apr-22 19:30N 28°07' W 015°25'2 1.2
2018-Apr-22 18:12N 28°09' W 015°25'1 5.3
2018-Apr-22 18:00N 28°08' W 015°25'2 3.7
2018-Apr-22 17:30N 28°08' W 015°23'2 1.3
2018-Apr-22 15:53N 28°09' W 015°25'2 6.2
2018-Apr-22 15:30N 28°07' W 015°24'2 2.3
2018-Apr-22 14:28N 28°09' W 015°25'0 0.0
2018-Apr-22 09:55N 28°09' W 015°25'3 8.2
2018-Apr-22 09:30N 28°06' W 015°24'2 4.4
2018-Apr-22 09:00N 28°04' W 015°22'0 0.1
2018-Apr-22 08:30N 28°04' W 015°22'1 1.3
2018-Apr-22 08:00N 28°04' W 015°23'4 8.7
2018-Apr-22 07:30N 28°08' W 015°25'4 0.3
2018-Apr-21 19:20N 28°05' W 015°24'1 2.7
2018-Apr-21 19:00N 28°06' W 015°24'1 1.4
2018-Apr-21 18:30N 28°06' W 015°23'1 0.2
2018-Apr-21 09:05N 28°07' W 015°24'110.0
2018-Apr-21 09:00N 28°07' W 015°25'2 3.0
2018-Apr-21 08:30N 28°09' W 015°25'0 0.0
2018-Apr-21 08:00N 28°09' W 015°25'0 0.0
2018-Apr-21 07:30N 28°09' W 015°25'0 0.0
2018-Apr-21 07:00N 28°09' W 015°25'0 0.0
2018-Apr-20 06:37N 28°09' W 015°25'1 7.4
2018-Apr-20 06:30N 28°08' W 015°25'2 4.3
2018-Apr-20 06:00N 28°07' W 015°23'3 6.1
2018-Apr-20 05:30N 28°08' W 015°19'510.0
2018-Apr-20 05:00N 28°08' W 015°25'1 0.1
2018-Apr-19 17:51N 28°08' W 015°24'1 3.6
2018-Apr-19 17:30N 28°07' W 015°24'2 1.4
2018-Apr-19 15:49N 28°09' W 015°25'2 4.7
2018-Apr-19 15:30N 28°07' W 015°25'0 0.0
2018-Apr-19 15:00N 28°07' W 015°25'0 0.0
2018-Apr-19 14:30N 28°07' W 015°25'0 0.5
2018-Apr-19 14:00N 28°08' W 015°25'0 0.3
2018-Apr-19 13:30N 28°08' W 015°25'1 2.4
2018-Apr-19 13:00N 28°09' W 015°25'0 0.0
2018-Apr-19 12:30N 28°09' W 015°25'0 0.0
2018-Apr-19 12:00N 28°09' W 015°25'0 0.0
2018-Apr-19 11:30N 28°09' W 015°25'3 5.3
2018-Apr-19 11:01N 28°08' W 015°23'1 0.9
2018-Apr-19 09:30N 28°07' W 015°24'1 2.9
2018-Apr-19 09:00N 28°08' W 015°24'3 5.6
2018-Apr-19 08:30N 28°06' W 015°23'2 4.4
2018-Apr-19 07:59N 28°07' W 015°25'1 2.5
2018-Apr-19 07:30N 28°08' W 015°24'1 2.8
2018-Apr-19 07:00N 28°09' W 015°25'4 8.7
2018-Apr-19 06:30N 28°05' W 015°23'4 6.9
2018-Apr-19 06:00N 28°08' W 015°25'1 0.1
2018-Apr-18 18:27N 28°09' W 015°25'4 8.1
2018-Apr-18 18:00N 28°05' W 015°24'1 2.7
2018-Apr-18 17:30N 28°06' W 015°22'3 2.8
2018-Apr-18 16:16N 28°08' W 015°25'1 4.0
2018-Apr-18 15:57N 28°07' W 015°24'4 8.1
2018-Apr-18 15:30N 28°07' W 015°20'1 2.8
2018-Apr-18 15:01N 28°06' W 015°21'3 6.4
2018-Apr-18 14:30N 28°06' W 015°24'0 0.0
2018-Apr-18 14:00N 28°06' W 015°24'2 3.1
2018-Apr-18 13:31N 28°08' W 015°24'3 7.0
2018-Apr-18 13:01N 28°06' W 015°21'3 5.7
2018-Apr-18 12:30N 28°07' W 015°24'2 1.3
2018-Apr-18 11:02N 28°09' W 015°25'0 0.0
2018-Apr-18 10:59N 28°09' W 015°25'3 6.0
2018-Apr-18 10:30N 28°06' W 015°24'0 0.9
2018-Apr-18 10:00N 28°06' W 015°24'1 2.1
2018-Apr-18 09:30N 28°05' W 015°24'4 6.7
2018-Apr-18 08:53N 28°09' W 015°25'0 0.0
2018-Apr-18 08:30N 28°09' W 015°25'0 0.0
2018-Apr-18 08:00N 28°09' W 015°25'2 4.6
2018-Apr-18 07:30N 28°07' W 015°24'3 5.2
2018-Apr-18 07:00N 28°04' W 015°23'1 1.0
2018-Apr-18 06:30N 28°05' W 015°23'4 8.1
2018-Apr-18 05:58N 28°09' W 015°25'0 0.0
2018-Apr-18 01:11N 28°09' W 015°25'1 4.2
2018-Apr-18 01:00N 28°08' W 015°25'1 0.5
2018-Apr-17 23:25N 28°09' W 015°25'3 6.3
2018-Apr-17 23:00N 28°06' W 015°24'1 2.6
2018-Apr-17 22:30N 28°08' W 015°25'1 2.7
2018-Apr-17 22:00N 28°06' W 015°24'2 3.2
2018-Apr-17 21:30N 28°08' W 015°25'1 0.6
2018-Apr-17 19:40N 28°09' W 015°25'0 0.0
2018-Apr-17 19:30N 28°09' W 015°25'3 5.8
2018-Apr-17 19:00N 28°06' W 015°24'1 1.5
2018-Apr-17 18:30N 28°06' W 015°23'3 6.9
2018-Apr-17 18:00N 28°09' W 015°25'3 6.1
2018-Apr-17 17:30N 28°06' W 015°24'2 4.4
2018-Apr-17 17:00N 28°07' W 015°21'1 2.8
2018-Apr-17 16:30N 28°05' W 015°22'4 7.4
2018-Apr-17 16:00N 28°08' W 015°25'1 2.4
2018-Apr-17 15:30N 28°07' W 015°24'1 2.6
2018-Apr-17 15:00N 28°08' W 015°24'1 2.1
2018-Apr-17 14:19N 28°09' W 015°25'0 0.0
2018-Apr-17 10:10N 28°09' W 015°25'1 3.5
2018-Apr-17 10:00N 28°08' W 015°25'3 5.2
2018-Apr-17 09:30N 28°06' W 015°24'3 6.1
2018-Apr-17 09:01N 28°09' W 015°25'3 6.5
2018-Apr-17 08:30N 28°06' W 015°23'0 0.1
2018-Apr-17 08:00N 28°06' W 015°23'3 6.9
2018-Apr-17 07:30N 28°09' W 015°25'0 0.0
2018-Apr-15 20:37N 28°09' W 015°25'0 0.0
2018-Apr-15 20:30N 28°09' W 015°25'3 6.6
2018-Apr-15 20:00N 28°07' W 015°23'1 2.1
2018-Apr-15 19:30N 28°07' W 015°21'3 5.5
2018-Apr-15 19:00N 28°07' W 015°24'4 7.2
2018-Apr-15 18:30N 28°04' W 015°22'4 8.2
2018-Apr-15 18:00N 28°08' W 015°24'4 7.7
2018-Apr-15 17:30N 28°08' W 015°20'1 2.4
2018-Apr-15 17:00N 28°07' W 015°21'4 0.2
2018-Apr-15 00:12N 28°09' W 015°25'1 5.8
2018-Apr-15 00:00N 28°08' W 015°25'0 1.0
2018-Apr-14 23:30N 28°07' W 015°25'2 3.1
2018-Apr-14 22:58N 28°09' W 015°25'3 6.8
2018-Apr-14 22:30N 28°07' W 015°23'2 3.2
2018-Apr-14 22:00N 28°06' W 015°21'3 5.9
2018-Apr-14 21:30N 28°07' W 015°24'2 2.2
2018-Apr-14 20:24N 28°09' W 015°25'3 2.5
2018-Apr-14 19:21N 28°07' W 015°24'0 1.3
2018-Apr-14 19:00N 28°06' W 015°24'2 3.9
2018-Apr-14 18:30N 28°08' W 015°25'1 0.3
2018-Apr-14 15:10N 28°09' W 015°25'1 5.4
2018-Apr-14 15:00N 28°08' W 015°25'4 9.0
2018-Apr-14 14:30N 28°04' W 015°23'1 2.6
2018-Apr-14 14:00N 28°05' W 015°23'4 7.9
2018-Apr-14 13:30N 28°09' W 015°25'0 0.0
2018-Apr-14 10:52N 28°09' W 015°25'3 7.8
2018-Apr-14 10:30N 28°06' W 015°24'3 5.6
2018-Apr-14 10:00N 28°09' W 015°25'3 5.1
2018-Apr-14 09:30N 28°07' W 015°23'3 5.2
2018-Apr-14 09:00N 28°06' W 015°21'4 7.2
2018-Apr-14 08:30N 28°08' W 015°24'1 1.0
2018-Apr-14 07:26N 28°08' W 015°25'0 0.1
2018-Apr-14 01:17N 28°09' W 015°25'2 7.1
2018-Apr-14 01:00N 28°07' W 015°25'0 0.8
2018-Apr-14 00:30N 28°07' W 015°24'0 0.1
2018-Apr-14 00:00N 28°07' W 015°24'0 0.0
2018-Apr-13 23:30N 28°07' W 015°24'0 0.0
2018-Apr-13 23:00N 28°07' W 015°24'0 0.0
2018-Apr-13 22:30N 28°07' W 015°24'0 0.0
2018-Apr-13 22:00N 28°07' W 015°24'0 0.0
2018-Apr-13 21:30N 28°07' W 015°24'0 0.0
2018-Apr-13 21:00N 28°07' W 015°24'0 0.1
2018-Apr-13 20:30N 28°07' W 015°24'2 4.4
2018-Apr-13 19:58N 28°09' W 015°25'0 0.0
2018-Apr-13 19:30N 28°09' W 015°25'0 0.0
2018-Apr-13 16:40N 28°09' W 015°25'0 0.0
2018-Apr-13 16:29N 28°09' W 015°25'0 0.0
2018-Apr-13 16:00N 28°09' W 015°25'1 1.6
2018-Apr-13 15:30N 28°08' W 015°25'1 2.7
2018-Apr-13 15:00N 28°07' W 015°24'2 0.4
2018-Apr-13 10:06N 28°09' W 015°25'0 2.1
2018-Apr-13 10:00N 28°09' W 015°25'4 8.7
2018-Apr-13 09:30N 28°05' W 015°23'1 1.6
2018-Apr-13 09:00N 28°04' W 015°22'3 4.7
2018-Apr-13 08:27N 28°06' W 015°24'2 3.4
2018-Apr-13 08:00N 28°08' W 015°24'0 1.0
2018-Apr-13 07:30N 28°08' W 015°25'1 2.5
2018-Apr-13 07:00N 28°09' W 015°25'0 0.0
2018-Apr-13 06:30N 28°09' W 015°25'  
Track history (hours):
 
Tides and Currents Weather Stations Pressure Air Temp Water Temp Dewpoint Dewpoint Depression Visibility Wind Speed Wind Dir Waves Ship Positions

Vb La Graciosa

Last reported at 2018-Apr-23 01:29 UTC. Time now 2018-Apr-23 05:35 UTC.
Position N 28°09' W 015°25'.

Length 22 m.

Type: Ship. MMSI: 225983994.

Date/timePositionNaut miles runAvg speedWind from/ knotsBaromVisibWave heightAir tempDewpointWater temp
2018-Apr-23 01:29N 28°09' W 015°25'4 7.8
2018-Apr-23 01:00N 28°05' W 015°24'2 3.9
2018-Apr-23 00:30N 28°07' W 015°25'2 0.4
2018-Apr-22 20:01N 28°09' W 015°25'0 0.0
2018-Apr-22 20:00N 28°09' W 015°25'2 3.2
2018-Apr-22 19:30N 28°07' W 015°25'2 1.2
2018-Apr-22 18:12N 28°09' W 015°25'1 5.3
2018-Apr-22 18:00N 28°08' W 015°25'2 3.7
2018-Apr-22 17:30N 28°08' W 015°23'2 1.3
2018-Apr-22 15:53N 28°09' W 015°25'2 6.2
2018-Apr-22 15:30N 28°07' W 015°24'2 2.3
2018-Apr-22 14:28N 28°09' W 015°25'0 0.0
2018-Apr-22 09:55N 28°09' W 015°25'3 8.2
2018-Apr-22 09:30N 28°06' W 015°24'2 4.4
2018-Apr-22 09:00N 28°04' W 015°22'0 0.1
2018-Apr-22 08:30N 28°04' W 015°22'1 1.3
2018-Apr-22 08:00N 28°04' W 015°23'4 8.7
2018-Apr-22 07:30N 28°08' W 015°25'4 0.3
2018-Apr-21 19:20N 28°05' W 015°24'1 2.7
2018-Apr-21 19:00N 28°06' W 015°24'1 1.4
2018-Apr-21 18:30N 28°06' W 015°23'1 0.2
2018-Apr-21 09:05N 28°07' W 015°24'110.0
2018-Apr-21 09:00N 28°07' W 015°25'2 3.0
2018-Apr-21 08:30N 28°09' W 015°25'0 0.0
2018-Apr-21 08:00N 28°09' W 015°25'0 0.0
2018-Apr-21 07:30N 28°09' W 015°25'0 0.0
2018-Apr-21 07:00N 28°09' W 015°25'0 0.0
2018-Apr-20 06:37N 28°09' W 015°25'1 7.4
2018-Apr-20 06:30N 28°08' W 015°25'2 4.3
2018-Apr-20 06:00N 28°07' W 015°23'3 6.1
2018-Apr-20 05:30N 28°08' W 015°19'510.0
2018-Apr-20 05:00N 28°08' W 015°25'1 0.1
2018-Apr-19 17:51N 28°08' W 015°24'1 3.6
2018-Apr-19 17:30N 28°07' W 015°24'2 1.4
2018-Apr-19 15:49N 28°09' W 015°25'2 4.7
2018-Apr-19 15:30N 28°07' W 015°25'0 0.0
2018-Apr-19 15:00N 28°07' W 015°25'0 0.0
2018-Apr-19 14:30N 28°07' W 015°25'0 0.5
2018-Apr-19 14:00N 28°08' W 015°25'0 0.3
2018-Apr-19 13:30N 28°08' W 015°25'1 2.4
2018-Apr-19 13:00N 28°09' W 015°25'0 0.0
2018-Apr-19 12:30N 28°09' W 015°25'0 0.0
2018-Apr-19 12:00N 28°09' W 015°25'0 0.0
2018-Apr-19 11:30N 28°09' W 015°25'3 5.3
2018-Apr-19 11:01N 28°08' W 015°23'1 0.9
2018-Apr-19 09:30N 28°07' W 015°24'1 2.9
2018-Apr-19 09:00N 28°08' W 015°24'3 5.6
2018-Apr-19 08:30N 28°06' W 015°23'2 4.4
2018-Apr-19 07:59N 28°07' W 015°25'1 2.5
2018-Apr-19 07:30N 28°08' W 015°24'1 2.8
2018-Apr-19 07:00N 28°09' W 015°25'4 8.7
2018-Apr-19 06:30N 28°05' W 015°23'4 6.9
2018-Apr-19 06:00N 28°08' W 015°25'1 0.1
2018-Apr-18 18:27N 28°09' W 015°25'4 8.1
2018-Apr-18 18:00N 28°05' W 015°24'1 2.7
2018-Apr-18 17:30N 28°06' W 015°22'3 2.8
2018-Apr-18 16:16N 28°08' W 015°25'1 4.0
2018-Apr-18 15:57N 28°07' W 015°24'4 8.1
2018-Apr-18 15:30N 28°07' W 015°20'1 2.8
2018-Apr-18 15:01N 28°06' W 015°21'3 6.4
2018-Apr-18 14:30N 28°06' W 015°24'0 0.0
2018-Apr-18 14:00N 28°06' W 015°24'2 3.1
2018-Apr-18 13:31N 28°08' W 015°24'3 7.0
2018-Apr-18 13:01N 28°06' W 015°21'3 5.7
2018-Apr-18 12:30N 28°07' W 015°24'2 1.3
2018-Apr-18 11:02N 28°09' W 015°25'0 0.0
2018-Apr-18 10:59N 28°09' W 015°25'3 6.0
2018-Apr-18 10:30N 28°06' W 015°24'0 0.9
2018-Apr-18 10:00N 28°06' W 015°24'1 2.1
2018-Apr-18 09:30N 28°05' W 015°24'4 6.7
2018-Apr-18 08:53N 28°09' W 015°25'0 0.0
2018-Apr-18 08:30N 28°09' W 015°25'0 0.0
2018-Apr-18 08:00N 28°09' W 015°25'2 4.6
2018-Apr-18 07:30N 28°07' W 015°24'3 5.2
2018-Apr-18 07:00N 28°04' W 015°23'1 1.0
2018-Apr-18 06:30N 28°05' W 015°23'4 8.1
2018-Apr-18 05:58N 28°09' W 015°25'0 0.0
2018-Apr-18 01:11N 28°09' W 015°25'1 4.2
2018-Apr-18 01:00N 28°08' W 015°25'1 0.5
2018-Apr-17 23:25N 28°09' W 015°25'3 6.3
2018-Apr-17 23:00N 28°06' W 015°24'1 2.6
2018-Apr-17 22:30N 28°08' W 015°25'1 2.7
2018-Apr-17 22:00N 28°06' W 015°24'2 3.2
2018-Apr-17 21:30N 28°08' W 015°25'1 0.6
2018-Apr-17 19:40N 28°09' W 015°25'0 0.0
2018-Apr-17 19:30N 28°09' W 015°25'3 5.8
2018-Apr-17 19:00N 28°06' W 015°24'1 1.5
2018-Apr-17 18:30N 28°06' W 015°23'3 6.9
2018-Apr-17 18:00N 28°09' W 015°25'3 6.1
2018-Apr-17 17:30N 28°06' W 015°24'2 4.4
2018-Apr-17 17:00N 28°07' W 015°21'1 2.8
2018-Apr-17 16:30N 28°05' W 015°22'4 7.4
2018-Apr-17 16:00N 28°08' W 015°25'1 2.4
2018-Apr-17 15:30N 28°07' W 015°24'1 2.6
2018-Apr-17 15:00N 28°08' W 015°24'1 2.1
2018-Apr-17 14:19N 28°09' W 015°25'0 0.0
2018-Apr-17 10:10N 28°09' W 015°25'1 3.5
2018-Apr-17 10:00N 28°08' W 015°25'3 5.2
2018-Apr-17 09:30N 28°06' W 015°24'3 6.1
2018-Apr-17 09:01N 28°09' W 015°25'3 6.5
2018-Apr-17 08:30N 28°06' W 015°23'0 0.1
2018-Apr-17 08:00N 28°06' W 015°23'3 6.9
2018-Apr-17 07:30N 28°09' W 015°25'0 0.0
2018-Apr-15 20:37N 28°09' W 015°25'0 0.0
2018-Apr-15 20:30N 28°09' W 015°25'3 6.6
2018-Apr-15 20:00N 28°07' W 015°23'1 2.1
2018-Apr-15 19:30N 28°07' W 015°21'3 5.5
2018-Apr-15 19:00N 28°07' W 015°24'4 7.2
2018-Apr-15 18:30N 28°04' W 015°22'4 8.2
2018-Apr-15 18:00N 28°08' W 015°24'4 7.7
2018-Apr-15 17:30N 28°08' W 015°20'1 2.4
2018-Apr-15 17:00N 28°07' W 015°21'4 0.2
2018-Apr-15 00:12N 28°09' W 015°25'1 5.8
2018-Apr-15 00:00N 28°08' W 015°25'0 1.0
2018-Apr-14 23:30N 28°07' W 015°25'2 3.1
2018-Apr-14 22:58N 28°09' W 015°25'3 6.8
2018-Apr-14 22:30N 28°07' W 015°23'2 3.2
2018-Apr-14 22:00N 28°06' W 015°21'3 5.9
2018-Apr-14 21:30N 28°07' W 015°24'2 2.2
2018-Apr-14 20:24N 28°09' W 015°25'3 2.5
2018-Apr-14 19:21N 28°07' W 015°24'0 1.3
2018-Apr-14 19:00N 28°06' W 015°24'2 3.9
2018-Apr-14 18:30N 28°08' W 015°25'1 0.3
2018-Apr-14 15:10N 28°09' W 015°25'1 5.4
2018-Apr-14 15:00N 28°08' W 015°25'4 9.0
2018-Apr-14 14:30N 28°04' W 015°23'1 2.6
2018-Apr-14 14:00N 28°05' W 015°23'4 7.9
2018-Apr-14 13:30N 28°09' W 015°25'0 0.0
2018-Apr-14 10:52N 28°09' W 015°25'3 7.8
2018-Apr-14 10:30N 28°06' W 015°24'3 5.6
2018-Apr-14 10:00N 28°09' W 015°25'3 5.1
2018-Apr-14 09:30N 28°07' W 015°23'3 5.2
2018-Apr-14 09:00N 28°06' W 015°21'4 7.2
2018-Apr-14 08:30N 28°08' W 015°24'1 1.0
2018-Apr-14 07:26N 28°08' W 015°25'0 0.1
2018-Apr-14 01:17N 28°09' W 015°25'2 7.1
2018-Apr-14 01:00N 28°07' W 015°25'0 0.8
2018-Apr-14 00:30N 28°07' W 015°24'0 0.1
2018-Apr-14 00:00N 28°07' W 015°24'0 0.0
2018-Apr-13 23:30N 28°07' W 015°24'0 0.0
2018-Apr-13 23:00N 28°07' W 015°24'0 0.0
2018-Apr-13 22:30N 28°07' W 015°24'0 0.0
2018-Apr-13 22:00N 28°07' W 015°24'0 0.0
2018-Apr-13 21:30N 28°07' W 015°24'0 0.0
2018-Apr-13 21:00N 28°07' W 015°24'0 0.1
2018-Apr-13 20:30N 28°07' W 015°24'2 4.4
2018-Apr-13 19:58N 28°09' W 015°25'0 0.0
2018-Apr-13 19:30N 28°09' W 015°25'0 0.0
2018-Apr-13 16:40N 28°09' W 015°25'0 0.0
2018-Apr-13 16:29N 28°09' W 015°25'0 0.0
2018-Apr-13 16:00N 28°09' W 015°25'1 1.6
2018-Apr-13 15:30N 28°08' W 015°25'1 2.7
2018-Apr-13 15:00N 28°07' W 015°24'2 0.4
2018-Apr-13 10:06N 28°09' W 015°25'0 2.1
2018-Apr-13 10:00N 28°09' W 015°25'4 8.7
2018-Apr-13 09:30N 28°05' W 015°23'1 1.6
2018-Apr-13 09:00N 28°04' W 015°22'3 4.7
2018-Apr-13 08:27N 28°06' W 015°24'2 3.4
2018-Apr-13 08:00N 28°08' W 015°24'0 1.0
2018-Apr-13 07:30N 28°08' W 015°25'1 2.5
2018-Apr-13 07:00N 28°09' W 015°25'0 0.0
2018-Apr-13 06:30N 28°09' W 015°25'  

Dump ship's entire track history